Time;durP1;ratioP1;P1;durP2;ratioP2;P2;SDS_P1;SDS_P2;PMS_P1;PMS_P2;Temp;Humidity;BMP_temperature;BMP_pressure;BME280_temperature;BME280_humidity;BME280_pressure;Samples;Min_cycle;Max_cycle;Signal;HPM_P1;HPM_P2
2021/12/29 00:02:35;;;;;;;9.4;8.2;;;;;;;8.4;100.0;99780;;;;
2021/12/29 00:06:35;;;;;;;9.4;8.2;;;;;;;8.3;100.0;99790;;;;
2021/12/29 00:14:35;;;;;;;9.4;8.2;;;;;;;8.4;100.0;99810;;;;
2021/12/29 00:26:35;;;;;;;14.8;11.5;;;;;;;8.3;100.0;99860;;;;
2021/12/29 00:28:35;;;;;;;14.8;11.5;;;;;;;8.4;100.0;99870;;;;
2021/12/29 00:32:35;;;;;;;14.8;11.5;;;;;;;8.3;100.0;99870;;;;
2021/12/29 00:34:35;;;;;;;14.8;11.5;;;;;;;8.4;100.0;99880;;;;
2021/12/29 00:36:35;;;;;;;14.8;11.5;;;;;;;8.3;100.0;99880;;;;
2021/12/29 00:38:35;;;;;;;12.3;10.5;;;;;;;8.4;100.0;99880;;;;
2021/12/29 00:44:35;;;;;;;12.3;10.5;;;;;;;8.3;100.0;99890;;;;
2021/12/29 00:46:35;;;;;;;12.3;10.5;;;;;;;8.4;100.0;99900;;;;
2021/12/29 00:52:35;;;;;;;12.3;10.5;;;;;;;8.3;100.0;99910;;;;
2021/12/29 00:54:35;;;;;;;12.3;10.5;;;;;;;8.4;100.0;99910;;;;
2021/12/29 01:00:37;;;;;;;16.3;12.4;;;;;;;8.5;100.0;99930;;;;
2021/12/29 01:02:35;;;;;;;16.3;12.4;;;;;;;8.4;100.0;99920;;;;
2021/12/29 01:08:35;;;;;;;16.3;12.4;;;;;;;8.5;100.0;99950;;;;
2021/12/29 01:12:35;;;;;;;16.3;12.4;;;;;;;8.4;100.0;99960;;;;
2021/12/29 01:18:35;;;;;;;17.7;13.0;;;;;;;8.4;100.0;99960;;;;
2021/12/29 01:52:38;;;;;;;18.0;14.9;;;;;;;8.5;100.0;100040;;;;
2021/12/29 01:54:35;;;;;;;18.0;14.9;;;;;;;8.4;100.0;100040;;;;
2021/12/29 02:08:35;;;;;;;18.7;16.1;;;;;;;8.5;100.0;100050;;;;
2021/12/29 02:10:42;;;;;;;18.7;16.1;;;;;;;8.4;100.0;100050;;;;
2021/12/29 02:12:35;;;;;;;18.7;16.1;;;;;;;8.5;100.0;100060;;;;
2021/12/29 02:16:35;;;;;;;18.7;16.1;;;;;;;8.4;100.0;100070;;;;
2021/12/29 02:24:41;;;;;;;17.8;15.4;;;;;;;8.5;100.0;100080;;;;
2021/12/29 02:28:35;;;;;;;17.8;15.4;;;;;;;8.6;100.0;100090;;;;
2021/12/29 02:34:35;;;;;;;17.8;15.4;;;;;;;8.5;100.0;100090;;;;
2021/12/29 02:36:35;;;;;;;17.8;15.4;;;;;;;8.4;100.0;100090;;;;
2021/12/29 03:00:35;;;;;;;15.5;12.9;;;;;;;8.3;100.0;100100;;;;
2021/12/29 03:04:35;;;;;;;15.5;12.9;;;;;;;8.4;100.0;100100;;;;
2021/12/29 03:08:35;;;;;;;15.5;12.9;;;;;;;8.5;100.0;100120;;;;
2021/12/29 03:10:35;;;;;;;15.5;12.9;;;;;;;8.4;100.0;100130;;;;
2021/12/29 03:12:35;;;;;;;15.5;12.9;;;;;;;8.5;100.0;100140;;;;
2021/12/29 03:14:35;;;;;;;15.5;12.9;;;;;;;8.4;100.0;100140;;;;
2021/12/29 03:22:35;;;;;;;15.4;13.6;;;;;;;8.5;100.0;100150;;;;
2021/12/29 03:24:35;;;;;;;15.4;13.6;;;;;;;8.4;100.0;100150;;;;
2021/12/29 03:26:35;;;;;;;15.4;13.6;;;;;;;8.5;100.0;100170;;;;
2021/12/29 03:28:35;;;;;;;15.4;13.6;;;;;;;8.4;100.0;100160;;;;
2021/12/29 03:32:41;;;;;;;15.4;13.6;;;;;;;8.5;100.0;100170;;;;
2021/12/29 03:36:35;;;;;;;15.4;13.6;;;;;;;8.4;100.0;100170;;;;
2021/12/29 03:38:35;;;;;;;14.6;13.2;;;;;;;8.5;100.0;100170;;;;
2021/12/29 03:40:35;;;;;;;14.6;13.2;;;;;;;8.4;100.0;100180;;;;
2021/12/29 03:48:35;;;;;;;14.6;13.2;;;;;;;8.5;100.0;100190;;;;
2021/12/29 03:56:35;;;;;;;14.6;13.2;;;;;;;8.4;100.0;100210;;;;
2021/12/29 04:00:35;;;;;;;18.1;16.2;;;;;;;8.3;100.0;100200;;;;
2021/12/29 04:02:35;;;;;;;18.1;16.2;;;;;;;8.4;100.0;100210;;;;
2021/12/29 04:12:35;;;;;;;18.1;16.2;;;;;;;8.5;100.0;100220;;;;
2021/12/29 04:22:35;;;;;;;21.1;18.8;;;;;;;8.6;100.0;100220;;;;
2021/12/29 04:24:36;;;;;;;21.1;18.8;;;;;;;8.5;100.0;100220;;;;
2021/12/29 04:30:35;;;;;;;21.1;18.8;;;;;;;8.6;100.0;100230;;;;
2021/12/29 04:34:35;;;;;;;21.1;18.8;;;;;;;8.5;100.0;100230;;;;
2021/12/29 04:44:35;;;;;;;20.7;18.1;;;;;;;8.4;100.0;100250;;;;
2021/12/29 04:48:47;;;;;;;20.7;18.1;;;;;;;8.5;100.0;100260;;;;
2021/12/29 04:52:35;;;;;;;20.7;18.1;;;;;;;8.6;100.0;100260;;;;
2021/12/29 04:54:35;;;;;;;20.7;18.1;;;;;;;8.5;100.0;100270;;;;
2021/12/29 05:00:35;;;;;;;20.3;18.1;;;;;;;8.4;100.0;100280;;;;
2021/12/29 05:02:35;;;;;;;20.3;18.1;;;;;;;8.5;100.0;100280;;;;
2021/12/29 05:12:35;;;;;;;20.3;18.1;;;;;;;8.6;100.0;100290;;;;
2021/12/29 05:20:35;;;;;;;28.1;22.5;;;;;;;8.5;100.0;100290;;;;
2021/12/29 05:22:35;;;;;;;28.1;22.5;;;;;;;8.4;100.0;100290;;;;
2021/12/29 05:26:35;;;;;;;28.1;22.5;;;;;;;8.5;100.0;100290;;;;
2021/12/29 05:30:35;;;;;;;28.1;22.5;;;;;;;8.4;100.0;100290;;;;
2021/12/29 05:38:35;;;;;;;28.9;23.9;;;;;;;8.3;100.0;100300;;;;
2021/12/29 05:40:37;;;;;;;28.9;23.9;;;;;;;8.4;100.0;100310;;;;
2021/12/29 05:42:35;;;;;;;28.9;23.9;;;;;;;8.3;100.0;100300;;;;
2021/12/29 05:44:35;;;;;;;28.9;23.9;;;;;;;8.4;100.0;100300;;;;
2021/12/29 05:56:37;;;;;;;28.9;23.9;;;;;;;8.5;100.0;100310;;;;
2021/12/29 05:58:35;;;;;;;31.7;25.1;;;;;;;8.4;100.0;100310;;;;
2021/12/29 06:00:37;;;;;;;31.7;25.1;;;;;;;8.5;100.0;100310;;;;
2021/12/29 06:02:35;;;;;;;31.7;25.1;;;;;;;8.4;100.0;100310;;;;
2021/12/29 06:04:35;;;;;;;31.7;25.1;;;;;;;8.5;100.0;100310;;;;
2021/12/29 06:06:35;;;;;;;31.7;25.1;;;;;;;8.4;100.0;100310;;;;
2021/12/29 06:12:35;;;;;;;31.7;25.1;;;;;;;8.5;100.0;100310;;;;
2021/12/29 06:16:35;;;;;;;31.7;25.1;;;;;;;8.4;100.0;100320;;;;
2021/12/29 06:20:38;;;;;;;28.7;23.6;;;;;;;8.5;100.0;100330;;;;
2021/12/29 06:28:35;;;;;;;28.7;23.6;;;;;;;8.4;100.0;100350;;;;
2021/12/29 06:44:35;;;;;;;27.2;23.0;;;;;;;8.5;100.0;100360;;;;
2021/12/29 06:48:35;;;;;;;27.2;23.0;;;;;;;8.4;100.0;100370;;;;
2021/12/29 06:50:35;;;;;;;27.2;23.0;;;;;;;8.5;100.0;100370;;;;
2021/12/29 06:58:35;;;;;;;28.0;22.9;;;;;;;8.4;100.0;100380;;;;
2021/12/29 07:02:35;;;;;;;28.0;22.9;;;;;;;8.5;100.0;100390;;;;
2021/12/29 07:04:35;;;;;;;28.0;22.9;;;;;;;8.4;100.0;100400;;;;
2021/12/29 07:06:35;;;;;;;28.0;22.9;;;;;;;8.5;100.0;100400;;;;
2021/12/29 07:08:35;;;;;;;28.0;22.9;;;;;;;8.6;100.0;100390;;;;
2021/12/29 07:10:35;;;;;;;28.0;22.9;;;;;;;8.5;100.0;100390;;;;
2021/12/29 07:12:35;;;;;;;28.0;22.9;;;;;;;8.4;100.0;100400;;;;
2021/12/29 07:16:35;;;;;;;28.0;22.9;;;;;;;8.5;100.0;100400;;;;
2021/12/29 07:22:35;;;;;;;28.0;22.2;;;;;;;8.4;100.0;100420;;;;
2021/12/29 07:26:35;;;;;;;28.0;22.2;;;;;;;8.5;100.0;100430;;;;
2021/12/29 07:34:35;;;;;;;28.0;22.2;;;;;;;8.4;100.0;100430;;;;
2021/12/29 07:36:35;;;;;;;28.0;22.2;;;;;;;8.5;100.0;100430;;;;
2021/12/29 07:38:35;;;;;;;26.6;21.2;;;;;;;8.4;100.0;100440;;;;
2021/12/29 07:56:35;;;;;;;26.6;21.2;;;;;;;8.3;100.0;100450;;;;
2021/12/29 07:58:35;;;;;;;26.3;20.3;;;;;;;8.4;100.0;100450;;;;
2021/12/29 08:04:35;;;;;;;26.3;20.3;;;;;;;8.3;100.0;100450;;;;
2021/12/29 08:06:35;;;;;;;26.3;20.3;;;;;;;8.4;100.0;100450;;;;
2021/12/29 08:38:35;;;;;;;24.6;17.1;;;;;;;8.5;100.0;100460;;;;
2021/12/29 08:46:35;;;;;;;24.6;17.1;;;;;;;8.4;100.0;100460;;;;
2021/12/29 08:48:37;;;;;;;24.6;17.1;;;;;;;8.5;100.0;100470;;;;
2021/12/29 08:50:35;;;;;;;24.6;17.1;;;;;;;8.4;100.0;100470;;;;
2021/12/29 08:56:35;;;;;;;24.6;17.1;;;;;;;8.5;100.0;100470;;;;
2021/12/29 09:02:35;;;;;;;21.6;17.3;;;;;;;8.6;100.0;100470;;;;
2021/12/29 09:14:35;;;;;;;21.6;17.3;;;;;;;8.5;100.0;100470;;;;
2021/12/29 09:16:35;;;;;;;18.2;15.3;;;;;;;8.6;100.0;100470;;;;
2021/12/29 09:22:35;;;;;;;18.2;15.3;;;;;;;8.7;100.0;100460;;;;
2021/12/29 09:24:35;;;;;;;18.2;15.3;;;;;;;8.6;100.0;100460;;;;
2021/12/29 09:28:40;;;;;;;18.2;15.3;;;;;;;8.7;100.0;100460;;;;
2021/12/29 09:40:35;;;;;;;20.5;16.6;;;;;;;8.8;100.0;100440;;;;
2021/12/29 09:42:35;;;;;;;20.5;16.6;;;;;;;8.7;100.0;100440;;;;
2021/12/29 09:44:36;;;;;;;20.5;16.6;;;;;;;8.8;100.0;100450;;;;
2021/12/29 09:46:35;;;;;;;20.5;16.6;;;;;;;8.7;100.0;100450;;;;
2021/12/29 09:50:35;;;;;;;20.5;16.6;;;;;;;8.8;100.0;100450;;;;
2021/12/29 09:52:35;;;;;;;20.5;16.6;;;;;;;8.7;100.0;100450;;;;
2021/12/29 09:54:35;;;;;;;20.5;16.6;;;;;;;8.8;100.0;100450;;;;
2021/12/29 10:06:35;;;;;;;17.7;15.8;;;;;;;8.9;100.0;100440;;;;
2021/12/29 10:14:35;;;;;;;17.7;15.8;;;;;;;9.0;100.0;100440;;;;
2021/12/29 10:16:35;;;;;;;19.8;17.8;;;;;;;9.1;100.0;100450;;;;
2021/12/29 10:20:35;;;;;;;19.8;17.8;;;;;;;9.2;100.0;100450;;;;
2021/12/29 10:28:35;;;;;;;19.8;17.8;;;;;;;9.3;100.0;100440;;;;
2021/12/29 10:32:35;;;;;;;19.8;17.8;;;;;;;9.2;100.0;100420;;;;
2021/12/29 10:34:35;;;;;;;19.8;17.8;;;;;;;9.3;100.0;100410;;;;
2021/12/29 10:36:35;;;;;;;16.1;14.4;;;;;;;9.2;100.0;100410;;;;
2021/12/29 10:38:35;;;;;;;16.1;14.4;;;;;;;9.3;100.0;100400;;;;
2021/12/29 10:42:35;;;;;;;16.1;14.4;;;;;;;9.1;100.0;100410;;;;
2021/12/29 10:46:35;;;;;;;16.1;14.4;;;;;;;9.2;100.0;100410;;;;
2021/12/29 10:48:35;;;;;;;16.1;14.4;;;;;;;9.3;100.0;100410;;;;
2021/12/29 10:50:35;;;;;;;16.1;14.4;;;;;;;9.2;100.0;100420;;;;
2021/12/29 11:06:35;;;;;;;13.2;11.7;;;;;;;9.3;100.0;100410;;;;
2021/12/29 11:08:35;;;;;;;13.2;11.7;;;;;;;9.2;100.0;100420;;;;
2021/12/29 11:20:35;;;;;;;11.8;10.1;;;;;;;9.3;100.0;100440;;;;
2021/12/29 11:24:35;;;;;;;11.8;10.1;;;;;;;9.2;100.0;100430;;;;
2021/12/29 11:42:35;;;;;;;13.1;9.4;;;;;;;9.1;100.0;100420;;;;
2021/12/29 11:44:35;;;;;;;13.1;9.4;;;;;;;9.2;100.0;100410;;;;
2021/12/29 11:48:35;;;;;;;13.1;9.4;;;;;;;9.3;100.0;100390;;;;
2021/12/29 11:54:35;;;;;;;13.1;9.4;;;;;;;9.2;100.0;100390;;;;
2021/12/29 11:58:36;;;;;;;11.7;9.4;;;;;;;9.3;100.0;100390;;;;
2021/12/29 12:00:35;;;;;;;11.7;9.4;;;;;;;9.2;100.0;100380;;;;
2021/12/29 12:14:36;;;;;;;11.7;9.4;;;;;;;9.4;100.0;100390;;;;
2021/12/29 12:18:35;;;;;;;11.2;9.3;;;;;;;9.3;100.0;100380;;;;
2021/12/29 12:24:35;;;;;;;11.2;9.3;;;;;;;9.2;100.0;100390;;;;
2021/12/29 12:34:35;;;;;;;11.2;9.3;;;;;;;9.3;100.0;100360;;;;
2021/12/29 12:38:36;;;;;;;12.5;8.1;;;;;;;9.4;100.0;100350;;;;
2021/12/29 12:40:36;;;;;;;12.5;8.1;;;;;;;9.3;100.0;100350;;;;
2021/12/29 12:48:35;;;;;;;12.5;8.1;;;;;;;9.2;100.0;100340;;;;
2021/12/29 12:54:35;;;;;;;12.5;8.1;;;;;;;9.1;100.0;100330;;;;
2021/12/29 13:00:35;;;;;;;11.3;7.8;;;;;;;9.2;100.0;100310;;;;
2021/12/29 13:02:35;;;;;;;11.3;7.8;;;;;;;9.1;100.0;100310;;;;
2021/12/29 13:04:35;;;;;;;11.3;7.8;;;;;;;9.2;100.0;100310;;;;
2021/12/29 13:22:36;;;;;;;12.8;7.5;;;;;;;9.3;100.0;100320;;;;
2021/12/29 13:24:37;;;;;;;12.8;7.5;;;;;;;9.2;100.0;100310;;;;
2021/12/29 13:26:36;;;;;;;12.8;7.5;;;;;;;9.1;100.0;100310;;;;
2021/12/29 13:28:35;;;;;;;12.8;7.5;;;;;;;9.2;100.0;100310;;;;
2021/12/29 13:30:35;;;;;;;12.8;7.5;;;;;;;9.1;100.0;100300;;;;
2021/12/29 13:36:35;;;;;;;13.3;7.9;;;;;;;9.2;100.0;100280;;;;
2021/12/29 13:40:35;;;;;;;13.3;7.9;;;;;;;9.1;100.0;100270;;;;
2021/12/29 13:48:35;;;;;;;13.3;7.9;;;;;;;9.0;100.0;100260;;;;
2021/12/29 13:52:35;;;;;;;13.3;7.9;;;;;;;9.1;100.0;100250;;;;
2021/12/29 13:54:35;;;;;;;13.3;7.9;;;;;;;9.0;100.0;100250;;;;
2021/12/29 13:56:35;;;;;;;11.5;7.9;;;;;;;9.1;100.0;100250;;;;
2021/12/29 14:06:36;;;;;;;11.5;7.9;;;;;;;9.2;100.0;100250;;;;
2021/12/29 14:08:35;;;;;;;11.5;7.9;;;;;;;9.1;100.0;100250;;;;
2021/12/29 14:20:35;;;;;;;9.5;7.6;;;;;;;9.0;100.0;100230;;;;
2021/12/29 14:26:35;;;;;;;9.5;7.6;;;;;;;9.1;100.0;100230;;;;
2021/12/29 14:28:35;;;;;;;9.5;7.6;;;;;;;9.0;100.0;100230;;;;
2021/12/29 14:34:35;;;;;;;9.5;7.6;;;;;;;9.1;100.0;100220;;;;
2021/12/29 14:36:37;;;;;;;13.3;8.4;;;;;;;9.0;100.0;100220;;;;
2021/12/29 14:44:35;;;;;;;13.3;8.4;;;;;;;8.9;100.0;100220;;;;
2021/12/29 14:46:35;;;;;;;13.3;8.4;;;;;;;9.0;100.0;100210;;;;
2021/12/29 14:52:36;;;;;;;13.3;8.4;;;;;;;9.1;100.0;100200;;;;
2021/12/29 14:54:35;;;;;;;13.3;8.4;;;;;;;9.0;100.0;100200;;;;
2021/12/29 14:56:35;;;;;;;11.5;8.7;;;;;;;8.9;100.0;100210;;;;
2021/12/29 15:02:35;;;;;;;11.5;8.7;;;;;;;9.1;100.0;100190;;;;
2021/12/29 15:04:35;;;;;;;11.5;8.7;;;;;;;9.0;100.0;100180;;;;
2021/12/29 15:06:35;;;;;;;11.5;8.7;;;;;;;9.1;100.0;100190;;;;
2021/12/29 15:08:35;;;;;;;11.5;8.7;;;;;;;9.0;100.0;100190;;;;
2021/12/29 15:10:36;;;;;;;11.5;8.7;;;;;;;9.1;100.0;100210;;;;
2021/12/29 15:12:37;;;;;;;11.5;8.7;;;;;;;9.0;100.0;100200;;;;
2021/12/29 15:16:35;;;;;;;12.5;8.9;;;;;;;9.1;100.0;100200;;;;
2021/12/29 15:32:35;;;;;;;12.5;8.9;;;;;;;9.2;100.0;100190;;;;
2021/12/29 15:34:35;;;;;;;12.5;8.9;;;;;;;9.1;100.0;100200;;;;
2021/12/29 15:42:35;;;;;;;13.0;9.9;;;;;;;9.2;100.0;100170;;;;
2021/12/29 15:44:39;;;;;;;13.0;9.9;;;;;;;9.1;100.0;100180;;;;
2021/12/29 15:46:35;;;;;;;13.0;9.9;;;;;;;9.2;100.0;100190;;;;
2021/12/29 15:48:35;;;;;;;13.0;9.9;;;;;;;9.1;100.0;100190;;;;
2021/12/29 15:50:35;;;;;;;13.0;9.9;;;;;;;9.2;100.0;100190;;;;
2021/12/29 15:54:35;;;;;;;13.0;9.9;;;;;;;9.3;100.0;100190;;;;
2021/12/29 15:56:35;;;;;;;10.8;9.5;;;;;;;9.2;100.0;100190;;;;
2021/12/29 16:06:35;;;;;;;10.8;9.5;;;;;;;9.3;100.0;100190;;;;
2021/12/29 16:08:35;;;;;;;10.8;9.5;;;;;;;9.4;100.0;100170;;;;
2021/12/29 16:12:35;;;;;;;10.8;9.5;;;;;;;9.3;100.0;100170;;;;
2021/12/29 16:14:35;;;;;;;10.8;9.5;;;;;;;9.2;100.0;100200;;;;
2021/12/29 16:20:35;;;;;;;16.1;14.4;;;;;;;9.3;100.0;100190;;;;
2021/12/29 16:22:35;;;;;;;16.1;14.4;;;;;;;9.4;100.0;100180;;;;
2021/12/29 16:24:35;;;;;;;16.1;14.4;;;;;;;9.5;100.0;100170;;;;
2021/12/29 16:30:35;;;;;;;16.1;14.4;;;;;;;9.4;100.0;100190;;;;
2021/12/29 16:34:35;;;;;;;16.1;14.4;;;;;;;9.6;100.0;100190;;;;
2021/12/29 16:36:35;;;;;;;15.2;13.6;;;;;;;9.5;100.0;100190;;;;
2021/12/29 16:38:35;;;;;;;15.2;13.6;;;;;;;9.6;100.0;100190;;;;
2021/12/29 16:42:35;;;;;;;15.2;13.6;;;;;;;9.7;100.0;100200;;;;
2021/12/29 16:46:35;;;;;;;15.2;13.6;;;;;;;9.6;100.0;100200;;;;
2021/12/29 16:48:35;;;;;;;15.2;13.6;;;;;;;9.7;100.0;100190;;;;
2021/12/29 16:50:35;;;;;;;15.2;13.6;;;;;;;9.8;100.0;100190;;;;
2021/12/29 16:58:37;;;;;;;18.9;17.0;;;;;;;9.9;100.0;100190;;;;
2021/12/29 17:04:35;;;;;;;18.9;17.0;;;;;;;10.0;100.0;100200;;;;
2021/12/29 17:06:35;;;;;;;18.9;17.0;;;;;;;9.8;100.0;100200;;;;
2021/12/29 17:08:35;;;;;;;18.9;17.0;;;;;;;9.9;100.0;100200;;;;
2021/12/29 17:16:35;;;;;;;19.5;17.4;;;;;;;10.0;100.0;100210;;;;
2021/12/29 17:20:35;;;;;;;19.5;17.4;;;;;;;10.1;100.0;100200;;;;
2021/12/29 17:30:35;;;;;;;19.5;17.4;;;;;;;10.2;100.0;100200;;;;
2021/12/29 17:32:36;;;;;;;19.5;17.4;;;;;;;10.1;100.0;100200;;;;
2021/12/29 17:34:35;;;;;;;19.5;17.4;;;;;;;10.2;100.0;100210;;;;
2021/12/29 17:40:35;;;;;;;25.9;22.3;;;;;;;10.3;100.0;100220;;;;
2021/12/29 17:42:37;;;;;;;25.9;22.3;;;;;;;10.2;100.0;100220;;;;
2021/12/29 17:44:35;;;;;;;25.9;22.3;;;;;;;10.4;100.0;100220;;;;
2021/12/29 17:48:35;;;;;;;25.9;22.3;;;;;;;10.3;100.0;100200;;;;
2021/12/29 17:50:35;;;;;;;25.9;22.3;;;;;;;10.4;100.0;100200;;;;
2021/12/29 17:54:35;;;;;;;25.9;22.3;;;;;;;10.5;100.0;100230;;;;
2021/12/29 18:04:35;;;;;;;41.5;30.6;;;;;;;10.6;100.0;100240;;;;
2021/12/29 18:14:35;;;;;;;48.6;36.4;;;;;;;10.7;100.0;100260;;;;
2021/12/29 18:20:36;;;;;;;48.6;36.4;;;;;;;10.8;100.0;100260;;;;
2021/12/29 18:24:35;;;;;;;48.6;36.4;;;;;;;10.9;100.0;100270;;;;
2021/12/29 18:30:36;;;;;;;48.6;36.4;;;;;;;11.0;100.0;100280;;;;
2021/12/29 18:36:35;;;;;;;52.0;38.9;;;;;;;11.2;100.0;100280;;;;
2021/12/29 18:40:35;;;;;;;52.0;38.9;;;;;;;11.1;100.0;100290;;;;
2021/12/29 18:46:35;;;;;;;52.0;38.9;;;;;;;11.2;100.0;100310;;;;
2021/12/29 18:54:35;;;;;;;51.1;36.7;;;;;;;11.3;100.0;100310;;;;
2021/12/29 18:58:35;;;;;;;51.1;36.7;;;;;;;11.4;100.0;100320;;;;
2021/12/29 19:00:35;;;;;;;51.1;36.7;;;;;;;11.2;100.0;100320;;;;
2021/12/29 19:06:35;;;;;;;51.1;36.7;;;;;;;11.4;100.0;100350;;;;
2021/12/29 19:08:35;;;;;;;51.1;36.7;;;;;;;11.5;100.0;100340;;;;
2021/12/29 19:10:35;;;;;;;51.1;36.7;;;;;;;11.4;100.0;100350;;;;
2021/12/29 19:14:35;;;;;;;29.1;21.5;;;;;;;11.3;100.0;100350;;;;
2021/12/29 19:16:35;;;;;;;29.1;21.5;;;;;;;11.4;100.0;100360;;;;
2021/12/29 19:18:35;;;;;;;29.1;21.5;;;;;;;11.3;100.0;100370;;;;
2021/12/29 19:20:35;;;;;;;29.1;21.5;;;;;;;11.4;100.0;100370;;;;
2021/12/29 19:28:35;;;;;;;29.1;21.5;;;;;;;11.3;100.0;100380;;;;
2021/12/29 19:32:35;;;;;;;29.1;21.5;;;;;;;11.4;100.0;100380;;;;
2021/12/29 19:38:35;;;;;;;24.8;13.2;;;;;;;11.3;100.0;100390;;;;
2021/12/29 19:40:35;;;;;;;24.8;13.2;;;;;;;11.2;100.0;100390;;;;
2021/12/29 19:42:35;;;;;;;24.8;13.2;;;;;;;11.3;100.0;100390;;;;
2021/12/29 19:48:35;;;;;;;24.8;13.2;;;;;;;11.4;100.0;100410;;;;
2021/12/29 19:50:35;;;;;;;24.8;13.2;;;;;;;11.2;100.0;100410;;;;
2021/12/29 19:58:35;;;;;;;21.0;8.3;;;;;;;11.1;100.0;100450;;;;
2021/12/29 20:02:35;;;;;;;21.0;8.3;;;;;;;11.0;100.0;100450;;;;
2021/12/29 20:04:35;;;;;;;21.0;8.3;;;;;;;11.1;100.0;100460;;;;
2021/12/29 20:08:38;;;;;;;21.0;8.3;;;;;;;11.2;100.0;100470;;;;
2021/12/29 20:12:35;;;;;;;21.0;8.3;;;;;;;11.1;100.0;100490;;;;
2021/12/29 20:16:35;;;;;;;22.6;7.9;;;;;;;11.0;100.0;100490;;;;
2021/12/29 20:30:35;;;;;;;22.6;7.9;;;;;;;10.9;100.0;100520;;;;
2021/12/29 20:32:35;;;;;;;22.6;7.9;;;;;;;11.0;100.0;100520;;;;
2021/12/29 20:34:35;;;;;;;25.2;7.7;;;;;;;10.9;100.0;100520;;;;
2021/12/29 20:40:35;;;;;;;25.2;7.7;;;;;;;10.8;100.0;100540;;;;
2021/12/29 20:42:35;;;;;;;25.2;7.7;;;;;;;10.9;100.0;100550;;;;
2021/12/29 20:44:35;;;;;;;25.2;7.7;;;;;;;10.8;100.0;100540;;;;
2021/12/29 20:46:35;;;;;;;25.2;7.7;;;;;;;10.7;100.0;100540;;;;
2021/12/29 20:58:35;;;;;;;26.2;8.2;;;;;;;10.6;100.0;100550;;;;
2021/12/29 21:00:35;;;;;;;26.2;8.2;;;;;;;10.7;100.0;100550;;;;
2021/12/29 21:12:35;;;;;;;26.2;8.2;;;;;;;10.8;100.0;100600;;;;
2021/12/29 21:14:35;;;;;;;30.9;9.8;;;;;;;10.7;100.0;100610;;;;
2021/12/29 21:30:35;;;;;;;30.9;9.8;;;;;;;10.6;100.0;100630;;;;
2021/12/29 21:32:35;;;;;;;30.9;9.8;;;;;;;10.5;100.0;100650;;;;
2021/12/29 21:34:35;;;;;;;29.7;12.5;;;;;;;10.6;100.0;100650;;;;
2021/12/29 21:36:35;;;;;;;29.7;12.5;;;;;;;10.5;100.0;100660;;;;
2021/12/29 21:38:35;;;;;;;29.7;12.5;;;;;;;10.6;100.0;100670;;;;
2021/12/29 21:48:35;;;;;;;29.7;12.5;;;;;;;10.5;100.0;100700;;;;
2021/12/29 21:54:35;;;;;;;38.4;17.7;;;;;;;10.4;100.0;100710;;;;
2021/12/29 22:04:35;;;;;;;38.4;17.7;;;;;;;10.5;100.0;100710;;;;
2021/12/29 22:06:35;;;;;;;38.4;17.7;;;;;;;10.4;100.0;100720;;;;
2021/12/29 22:20:35;;;;;;;43.7;19.3;;;;;;;10.5;100.0;100740;;;;
2021/12/29 22:22:35;;;;;;;43.7;19.3;;;;;;;10.4;100.0;100740;;;;
2021/12/29 22:26:35;;;;;;;43.7;19.3;;;;;;;10.5;100.0;100750;;;;
2021/12/29 22:34:35;;;;;;;40.2;18.6;;;;;;;10.6;100.0;100770;;;;
2021/12/29 22:36:36;;;;;;;40.2;18.6;;;;;;;10.5;100.0;100770;;;;
2021/12/29 22:38:35;;;;;;;40.2;18.6;;;;;;;10.6;100.0;100770;;;;
2021/12/29 22:40:35;;;;;;;40.2;18.6;;;;;;;10.7;100.0;100780;;;;
2021/12/29 22:42:35;;;;;;;40.2;18.6;;;;;;;10.6;100.0;100780;;;;
2021/12/29 22:48:35;;;;;;;40.2;18.6;;;;;;;10.5;100.0;100770;;;;
2021/12/29 22:50:35;;;;;;;40.2;18.6;;;;;;;10.6;100.0;100770;;;;
2021/12/29 22:52:35;;;;;;;40.2;18.6;;;;;;;10.7;100.0;100760;;;;
2021/12/29 22:54:35;;;;;;;37.8;18.1;;;;;;;10.6;100.0;100760;;;;
2021/12/29 23:00:35;;;;;;;37.8;18.1;;;;;;;10.7;100.0;100770;;;;
2021/12/29 23:04:35;;;;;;;37.8;18.1;;;;;;;10.6;100.0;100780;;;;
2021/12/29 23:06:35;;;;;;;37.8;18.1;;;;;;;10.7;100.0;100780;;;;
2021/12/29 23:12:37;;;;;;;37.8;18.1;;;;;;;10.6;100.0;100780;;;;
2021/12/29 23:14:37;;;;;;;41.5;19.7;;;;;;;10.7;100.0;100790;;;;
2021/12/29 23:16:35;;;;;;;41.5;19.7;;;;;;;10.6;100.0;100800;;;;
2021/12/29 23:22:36;;;;;;;41.5;19.7;;;;;;;10.7;100.0;100810;;;;
2021/12/29 23:24:45;;;;;;;41.5;19.7;;;;;;;10.6;100.0;100820;;;;
2021/12/29 23:44:36;;;;;;;39.7;18.3;;;;;;;10.7;100.0;100830;;;;
2021/12/29 23:48:35;;;;;;;39.7;18.3;;;;;;;10.6;100.0;100820;;;;
